createdAt,value
2023-01-27T00:01:05.009Z,31.20
2023-01-27T00:03:32.486Z,31.53
2023-01-27T00:06:00.650Z,36.97
2023-01-27T00:08:28.421Z,31.10
2023-01-27T00:11:27.441Z,30.80
2023-01-27T00:13:55.154Z,33.13
2023-01-27T00:16:22.512Z,21.83
2023-01-27T00:18:50.038Z,25.07
2023-01-27T00:21:35.947Z,26.03
2023-01-27T00:24:21.561Z,33.30
2023-01-27T00:26:49.739Z,20.37
2023-01-27T00:29:17.161Z,28.80
2023-01-27T00:32:03.071Z,26.10
2023-01-27T00:34:30.550Z,35.07
2023-01-27T00:36:58.023Z,39.20
2023-01-27T00:39:25.437Z,36.40
2023-01-27T00:41:54.584Z,24.30
2023-01-27T00:44:23.212Z,27.77
2023-01-27T00:46:50.918Z,25.00
2023-01-27T00:49:18.392Z,33.93
2023-01-27T00:51:45.797Z,23.90
2023-01-27T00:54:13.711Z,33.10
2023-01-27T00:56:41.618Z,37.10
2023-01-27T00:59:10.082Z,23.97
2023-01-27T01:01:37.846Z,24.90
2023-01-27T01:04:05.719Z,34.30
2023-01-27T01:06:33.611Z,35.83
2023-01-27T01:09:01.130Z,25.83
2023-01-27T01:11:28.794Z,28.87
2023-01-27T01:13:56.835Z,29.60
2023-01-27T01:16:27.811Z,28.30
2023-01-27T01:18:55.329Z,29.53
2023-01-27T01:21:22.987Z,30.50
2023-01-27T01:23:50.846Z,28.30
2023-01-27T01:26:18.370Z,31.00
2023-01-27T01:28:46.580Z,28.17
2023-01-27T01:31:15.479Z,37.17
2023-01-27T01:33:43.541Z,28.40
2023-01-27T01:36:13.399Z,29.70
2023-01-27T01:38:40.819Z,23.07
2023-01-27T01:41:11.476Z,25.30
2023-01-27T01:43:38.835Z,25.30
2023-01-27T01:46:08.454Z,29.80
2023-01-27T01:48:38.227Z,31.23
2023-01-27T01:51:12.897Z,31.27
2023-01-27T01:53:45.346Z,25.33
2023-01-27T01:56:18.135Z,28.80
2023-01-27T01:58:46.871Z,34.60
2023-01-27T02:01:15.583Z,29.83
2023-01-27T02:03:47.222Z,29.43
2023-01-27T02:06:15.498Z,23.70
2023-01-27T02:08:44.663Z,25.60
2023-01-27T02:11:12.171Z,24.03
2023-01-27T02:13:40.447Z,22.43
2023-01-27T02:16:10.031Z,26.53
2023-01-27T02:18:39.616Z,27.97
2023-01-27T02:21:07.686Z,27.37
2023-01-27T02:23:46.647Z,25.17
2023-01-27T02:26:18.381Z,28.30
2023-01-27T02:28:45.740Z,28.70
2023-01-27T02:31:13.120Z,33.33
2023-01-27T02:33:40.618Z,29.37
2023-01-27T02:36:12.068Z,34.73
2023-01-27T02:38:43.793Z,36.90
2023-01-27T02:41:15.640Z,31.30
2023-01-27T02:43:43.272Z,42.30
2023-01-27T02:46:11.096Z,43.20
2023-01-27T02:48:38.450Z,44.00
2023-01-27T02:51:06.011Z,33.90
2023-01-27T02:53:33.615Z,48.00
2023-01-27T02:56:01.317Z,39.33
2023-01-27T02:58:29.412Z,36.63
2023-01-27T03:00:56.874Z,23.80
2023-01-27T03:03:24.199Z,40.23
2023-01-27T03:05:51.501Z,47.07
2023-01-27T03:08:19.147Z,37.63
2023-01-27T03:10:51.262Z,37.50
2023-01-27T03:13:22.501Z,20.60
2023-01-27T03:16:09.147Z,32.00
2023-01-27T03:18:36.823Z,32.23
2023-01-27T03:21:06.048Z,32.93
2023-01-27T03:23:34.200Z,20.80
2023-01-27T03:26:02.654Z,37.40
2023-01-27T03:28:30.011Z,34.37
2023-01-27T03:31:01.496Z,34.53
2023-01-27T03:33:29.498Z,30.73
2023-01-27T03:36:15.281Z,28.00
2023-01-27T03:39:00.927Z,42.37
2023-01-27T03:41:46.996Z,40.00
2023-01-27T03:44:32.515Z,39.77
2023-01-27T03:47:00.826Z,36.20
2023-01-27T03:49:28.324Z,34.90
2023-01-27T03:51:55.574Z,42.67
2023-01-27T03:54:22.905Z,47.33
2023-01-27T03:56:50.177Z,31.40
2023-01-27T03:59:17.576Z,48.27
2023-01-27T04:01:44.933Z,52.93
2023-01-27T04:04:31.222Z,44.80
2023-01-27T04:07:00.165Z,42.80
2023-01-27T04:09:29.271Z,27.53
2023-01-27T04:11:59.143Z,43.77
2023-01-27T04:14:30.862Z,32.73
2023-01-27T04:17:00.348Z,21.47
2023-01-27T04:19:28.734Z,24.67
2023-01-27T04:21:57.124Z,34.93
2023-01-27T04:24:25.053Z,56.27
2023-01-27T04:26:54.966Z,30.10
2023-01-27T04:29:23.470Z,36.37
2023-01-27T04:31:51.246Z,44.00
2023-01-27T04:34:18.753Z,46.63
2023-01-27T04:36:47.251Z,25.20
2023-01-27T04:39:15.799Z,27.70
2023-01-27T04:41:44.316Z,39.77
2023-01-27T04:44:12.401Z,33.23
2023-01-27T04:46:39.878Z,35.63
2023-01-27T04:49:07.881Z,14.47
2023-01-27T04:51:35.300Z,32.90
2023-01-27T04:54:04.760Z,18.80
2023-01-27T04:56:33.492Z,30.40
2023-01-27T04:59:02.266Z,35.93
2023-01-27T05:01:30.434Z,18.53
2023-01-27T05:03:57.988Z,31.47
2023-01-27T05:06:26.107Z,40.37
2023-01-27T05:08:53.497Z,33.90
2023-01-27T05:11:22.036Z,28.87
2023-01-27T05:13:49.640Z,17.50
2023-01-27T05:16:18.987Z,19.70
2023-01-27T05:18:47.342Z,20.07
2023-01-27T05:21:16.336Z,13.60
2023-01-27T05:23:43.882Z,42.03
2023-01-27T05:26:13.331Z,32.27
2023-01-27T05:28:43.095Z,20.73
2023-01-27T05:31:13.030Z,24.67
2023-01-27T05:33:41.608Z,28.40
2023-01-27T05:36:11.400Z,31.23
2023-01-27T05:38:39.030Z,23.60
2023-01-27T05:41:08.068Z,27.53
2023-01-27T05:43:37.332Z,35.80
2023-01-27T05:46:08.269Z,18.60
2023-01-27T05:48:36.655Z,36.83
2023-01-27T05:51:05.076Z,23.97
2023-01-27T05:53:32.963Z,18.53
2023-01-27T05:56:00.720Z,22.83
2023-01-27T05:58:28.096Z,14.03
2023-01-27T06:00:55.955Z,22.10
2023-01-27T06:03:24.438Z,20.27
2023-01-27T06:05:53.378Z,27.13
2023-01-27T06:08:21.736Z,29.70
2023-01-27T06:10:49.107Z,22.97
2023-01-27T06:13:16.626Z,27.30
2023-01-27T06:15:45.671Z,31.50
2023-01-27T06:18:13.783Z,27.03
2023-01-27T06:20:42.762Z,33.07
2023-01-27T06:23:12.209Z,35.20
2023-01-27T06:25:40.607Z,38.23
2023-01-27T06:28:10.747Z,27.40
2023-01-27T06:30:40.956Z,33.53
2023-01-27T06:33:08.804Z,27.27
2023-01-27T06:35:37.780Z,20.50
2023-01-27T06:38:08.183Z,22.40
2023-01-27T06:40:36.206Z,21.13
2023-01-27T06:43:03.786Z,16.40
2023-01-27T06:45:31.347Z,18.97
2023-01-27T06:48:00.565Z,9.00
2023-01-27T06:50:29.243Z,8.80
2023-01-27T06:53:00.809Z,17.03
2023-01-27T06:55:29.765Z,15.33
2023-01-27T06:57:57.190Z,24.60
2023-01-27T07:00:24.677Z,16.63
2023-01-27T07:02:54.572Z,25.30
2023-01-27T07:05:21.895Z,20.27
2023-01-27T07:07:49.120Z,20.20
2023-01-27T07:10:16.864Z,17.73
2023-01-27T07:12:45.046Z,28.60
2023-01-27T07:15:12.876Z,24.27
2023-01-27T07:17:40.164Z,26.43
2023-01-27T07:20:11.379Z,25.93
2023-01-27T07:22:39.375Z,16.40
2023-01-27T07:25:07.690Z,21.57
2023-01-27T07:27:35.508Z,12.50
2023-01-27T07:30:04.025Z,22.57
2023-01-27T07:32:31.388Z,25.00
2023-01-27T07:34:58.759Z,11.37
2023-01-27T07:37:26.133Z,17.13
2023-01-27T07:39:53.573Z,19.80
2023-01-27T07:42:20.863Z,22.30
2023-01-27T07:44:48.144Z,13.23
2023-01-27T07:47:16.223Z,10.27
2023-01-27T07:49:43.568Z,2.70
2023-01-27T07:52:10.784Z,15.63
2023-01-27T07:54:38.042Z,14.00
2023-01-27T07:57:05.273Z,24.43
2023-01-27T07:59:32.543Z,19.80
2023-01-27T08:01:59.771Z,53.47
2023-01-27T08:04:27.741Z,19.33
2023-01-27T08:06:55.026Z,14.33
2023-01-27T08:09:22.303Z,22.90
2023-01-27T08:11:49.542Z,35.10
2023-01-27T08:14:16.807Z,21.73
2023-01-27T08:16:44.077Z,29.10
2023-01-27T08:19:11.363Z,25.00
2023-01-27T08:21:39.492Z,27.83
2023-01-27T08:24:09.580Z,24.60
2023-01-27T08:26:36.936Z,32.43
2023-01-27T08:29:04.140Z,33.43
2023-01-27T08:31:31.395Z,31.53
2023-01-27T08:33:58.685Z,38.30
2023-01-27T08:36:26.384Z,29.63
2023-01-27T08:38:55.197Z,23.70
2023-01-27T08:41:24.479Z,33.13
2023-01-27T08:43:51.879Z,29.47
2023-01-27T08:46:19.197Z,21.93
2023-01-27T08:48:47.074Z,22.33
2023-01-27T08:51:15.155Z,29.37
2023-01-27T08:53:42.553Z,29.33
2023-01-27T08:56:13.302Z,21.13
2023-01-27T08:58:40.581Z,22.13
2023-01-27T09:01:09.200Z,11.70
2023-01-27T09:03:36.640Z,17.20
2023-01-27T09:06:07.303Z,16.87
2023-01-27T09:08:34.670Z,10.73
2023-01-27T09:11:10.212Z,24.40
2023-01-27T09:13:37.534Z,26.10
2023-01-27T09:16:05.767Z,25.20
2023-01-27T09:18:33.377Z,29.00
2023-01-27T09:21:04.607Z,31.80
2023-01-27T09:23:32.152Z,19.97
2023-01-27T09:25:59.563Z,25.27
2023-01-27T09:28:27.505Z,29.93
2023-01-27T09:30:57.836Z,27.13
2023-01-27T09:33:25.536Z,18.13
2023-01-27T09:35:57.082Z,21.20
2023-01-27T09:38:27.932Z,31.17
2023-01-27T09:41:14.008Z,16.60
2023-01-27T09:43:58.582Z,12.17
2023-01-27T09:46:39.395Z,27.40
2023-01-27T09:49:31.886Z,42.57
2023-01-27T09:52:14.119Z,36.97
2023-01-27T09:54:53.941Z,39.93
2023-01-27T09:57:33.115Z,39.33
2023-01-27T10:00:23.707Z,42.80
2023-01-27T10:03:10.280Z,39.10
2023-01-27T10:05:59.690Z,40.30
2023-01-27T10:08:52.079Z,32.00
2023-01-27T10:11:25.764Z,27.30
2023-01-27T10:14:07.055Z,36.80
2023-01-27T10:16:51.144Z,11.83
2023-01-27T10:19:34.326Z,32.03
2023-01-27T10:22:13.328Z,27.37
2023-01-27T10:24:58.878Z,24.93
2023-01-27T10:27:28.917Z,40.90
2023-01-27T10:30:00.656Z,29.07
2023-01-27T10:32:35.072Z,15.83
2023-01-27T10:35:13.555Z,15.63
2023-01-27T10:37:50.357Z,31.50
2023-01-27T10:40:25.741Z,34.47
2023-01-27T10:43:03.639Z,29.63
2023-01-27T10:45:36.894Z,26.47
2023-01-27T10:48:22.992Z,38.30
2023-01-27T10:50:54.817Z,35.10
2023-01-27T10:53:28.819Z,36.60
2023-01-27T10:56:02.441Z,45.87
2023-01-27T10:58:50.950Z,37.50
2023-01-27T11:01:22.857Z,33.57
2023-01-27T11:03:57.751Z,61.30
2023-01-27T11:06:28.633Z,31.80
2023-01-27T11:09:07.530Z,37.67
2023-01-27T11:11:44.197Z,23.70
2023-01-27T11:14:16.872Z,35.20
2023-01-27T11:16:48.725Z,41.47
2023-01-27T11:19:34.748Z,38.37
2023-01-27T11:22:09.124Z,28.73
2023-01-27T11:24:44.763Z,24.40
2023-01-27T11:27:19.922Z,38.13
2023-01-27T11:29:53.336Z,29.57
2023-01-27T11:32:41.166Z,31.13
2023-01-27T11:35:12.432Z,57.20
2023-01-27T11:37:41.658Z,36.13
2023-01-27T11:40:16.726Z,32.27
2023-01-27T11:42:44.673Z,29.20
2023-01-27T11:45:15.988Z,30.63
2023-01-27T11:47:45.482Z,27.77
2023-01-27T11:50:16.255Z,32.90
2023-01-27T11:52:45.744Z,28.83
2023-01-27T11:55:19.271Z,28.97
2023-01-27T11:57:52.522Z,29.80
2023-01-27T12:00:23.789Z,31.27
2023-01-27T12:02:57.919Z,21.00
2023-01-27T12:05:30.723Z,34.17
2023-01-27T12:07:59.627Z,28.90
2023-01-27T12:10:30.765Z,22.83
2023-01-27T12:13:01.233Z,21.87
2023-01-27T12:15:30.445Z,15.00
2023-01-27T12:18:00.432Z,24.50
2023-01-27T12:20:34.447Z,22.93
2023-01-27T12:23:06.556Z,20.07
2023-01-27T12:25:44.110Z,32.97
2023-01-27T12:28:31.788Z,15.47
2023-01-27T12:31:06.843Z,30.97
2023-01-27T12:33:37.410Z,23.67
2023-01-27T12:36:13.850Z,31.33
2023-01-27T12:38:49.288Z,24.83
2023-01-27T12:41:23.454Z,29.00
2023-01-27T12:43:52.917Z,22.80
2023-01-27T12:46:23.504Z,29.77
2023-01-27T12:48:52.733Z,30.23
2023-01-27T12:51:22.869Z,23.93
2023-01-27T12:53:50.914Z,20.27
2023-01-27T12:56:21.886Z,20.80
2023-01-27T12:58:57.801Z,24.07
2023-01-27T13:01:29.346Z,11.67
2023-01-27T13:03:59.761Z,18.70
2023-01-27T13:06:36.329Z,28.13
2023-01-27T13:09:26.599Z,18.20
2023-01-27T13:11:55.644Z,14.03
2023-01-27T13:14:23.024Z,14.97
2023-01-27T13:16:57.744Z,21.13
2023-01-27T13:19:34.712Z,13.40
2023-01-27T13:22:04.924Z,10.40
2023-01-27T13:24:36.536Z,17.70
2023-01-27T13:27:09.943Z,17.27
2023-01-27T13:29:39.364Z,19.93
2023-01-27T13:32:15.908Z,17.40
2023-01-27T13:34:49.463Z,14.33
2023-01-27T13:37:21.770Z,19.73
2023-01-27T13:39:57.807Z,21.47
2023-01-27T13:42:31.215Z,9.00
2023-01-27T13:45:02.529Z,13.20
2023-01-27T13:47:40.749Z,18.10
2023-01-27T13:50:18.519Z,9.50
2023-01-27T13:52:49.511Z,16.20
2023-01-27T13:55:17.823Z,24.53
2023-01-27T13:58:04.839Z,14.27
2023-01-27T14:00:37.005Z,16.90
2023-01-27T14:03:29.545Z,19.07
2023-01-27T14:06:09.286Z,19.17
2023-01-27T14:08:52.771Z,17.70
2023-01-27T14:11:26.444Z,20.97
2023-01-27T14:14:12.317Z,17.83
2023-01-27T14:16:47.101Z,33.00
2023-01-27T14:19:25.566Z,14.17
2023-01-27T14:21:59.565Z,16.80
2023-01-27T14:24:37.829Z,15.80
2023-01-27T14:27:10.557Z,12.73
2023-01-27T14:29:44.389Z,11.03
2023-01-27T14:32:20.982Z,13.37
2023-01-27T14:34:57.780Z,11.43
2023-01-27T14:37:30.887Z,16.90
2023-01-27T14:40:15.752Z,32.57
2023-01-27T14:42:54.343Z,26.70
2023-01-27T14:45:24.447Z,14.57
2023-01-27T14:48:01.267Z,16.40
2023-01-27T14:50:36.015Z,16.80
2023-01-27T14:53:13.564Z,18.80
2023-01-27T14:55:48.471Z,13.00
2023-01-27T14:58:38.158Z,14.03
2023-01-27T15:01:17.131Z,12.07
2023-01-27T15:04:05.609Z,12.93
2023-01-27T15:06:40.764Z,10.77
2023-01-27T15:09:19.341Z,13.03
2023-01-27T15:12:11.195Z,17.27
2023-01-27T15:14:57.279Z,16.63
2023-01-27T15:17:36.156Z,5.93
2023-01-27T15:20:30.087Z,9.23
2023-01-27T15:23:13.106Z,20.50
2023-01-27T15:25:44.330Z,9.63
2023-01-27T15:28:14.653Z,6.57
2023-01-27T15:31:08.377Z,7.80
2023-01-27T15:33:53.388Z,7.53
2023-01-27T15:36:32.122Z,24.20
2023-01-27T15:39:14.974Z,10.93
2023-01-27T15:41:52.756Z,11.13
2023-01-27T15:44:29.598Z,12.03
2023-01-27T15:47:07.282Z,8.33
2023-01-27T15:49:39.833Z,8.57
2023-01-27T15:52:24.661Z,13.60
2023-01-27T15:54:53.539Z,14.93
2023-01-27T15:57:28.360Z,9.80
2023-01-27T16:00:01.614Z,6.00
2023-01-27T16:02:30.834Z,10.40
2023-01-27T16:05:07.946Z,8.43
2023-01-27T16:07:38.177Z,10.97
2023-01-27T16:10:08.057Z,9.53
2023-01-27T16:12:41.749Z,7.90
2023-01-27T16:15:34.472Z,7.60
2023-01-27T16:18:40.898Z,12.63
2023-01-27T16:21:29.116Z,9.87
2023-01-27T16:24:03.135Z,8.93
2023-01-27T16:26:36.191Z,8.57
2023-01-27T16:29:23.223Z,8.80
2023-01-27T16:31:57.663Z,7.90
2023-01-27T16:34:33.405Z,6.03
2023-01-27T16:37:15.044Z,12.03
2023-01-27T16:39:46.857Z,9.80
2023-01-27T16:42:15.832Z,9.00
2023-01-27T16:44:46.276Z,7.73
2023-01-27T16:47:25.276Z,9.10
2023-01-27T16:49:55.444Z,5.77
2023-01-27T16:52:40.749Z,8.83
2023-01-27T16:55:20.186Z,11.47
2023-01-27T16:57:47.420Z,10.83
2023-01-27T17:00:20.931Z,8.20
2023-01-27T17:02:50.109Z,9.60
2023-01-27T17:05:19.448Z,8.47
2023-01-27T17:08:03.244Z,10.77
2023-01-27T17:10:34.678Z,11.43
2023-01-27T17:13:02.768Z,14.57
2023-01-27T17:15:34.749Z,5.53
2023-01-27T17:18:08.087Z,13.93
2023-01-27T17:20:40.797Z,8.97
2023-01-27T17:23:19.329Z,9.53
2023-01-27T17:25:46.686Z,15.17
2023-01-27T17:28:21.008Z,5.77
2023-01-27T17:30:49.878Z,10.70
2023-01-27T17:33:20.459Z,6.93
2023-01-27T17:35:52.895Z,9.50
2023-01-27T17:38:22.871Z,6.87
2023-01-27T17:40:52.060Z,15.07
2023-01-27T17:43:28.251Z,10.53
2023-01-27T17:46:17.499Z,14.77
2023-01-27T17:48:51.421Z,18.67
2023-01-27T17:51:22.193Z,19.53
2023-01-27T17:53:50.806Z,11.57
2023-01-27T17:56:21.796Z,13.87
2023-01-27T17:58:53.187Z,12.83
2023-01-27T18:01:21.903Z,10.33
2023-01-27T18:03:53.129Z,13.07
2023-01-27T18:06:24.319Z,11.23
2023-01-27T18:09:10.637Z,11.30
2023-01-27T18:11:38.413Z,20.93
2023-01-27T18:14:17.491Z,20.33
2023-01-27T18:17:07.427Z,13.43
2023-01-27T18:19:51.782Z,17.17
2023-01-27T18:22:35.761Z,20.80
2023-01-27T18:25:03.473Z,20.80
2023-01-27T18:27:34.402Z,17.67
2023-01-27T18:30:07.017Z,26.80
2023-01-27T18:32:40.420Z,20.50
2023-01-27T18:35:27.250Z,22.93
2023-01-27T18:37:58.086Z,16.20
2023-01-27T18:40:30.388Z,21.60
2023-01-27T18:42:58.445Z,14.83
2023-01-27T18:45:26.947Z,17.60
2023-01-27T18:47:54.397Z,18.73
2023-01-27T18:50:24.297Z,30.07
2023-01-27T18:52:58.097Z,25.90
2023-01-27T18:55:26.958Z,26.67
2023-01-27T18:57:56.693Z,23.50
2023-01-27T19:00:26.185Z,18.70
2023-01-27T19:02:56.472Z,8.63
2023-01-27T19:05:27.365Z,35.30
2023-01-27T19:07:54.956Z,15.30
2023-01-27T19:10:24.495Z,20.87
2023-01-27T19:12:51.855Z,22.10
2023-01-27T19:15:23.003Z,30.63
2023-01-27T19:17:52.606Z,30.00
2023-01-27T19:20:21.853Z,27.83
2023-01-27T19:22:51.164Z,29.30
2023-01-27T19:25:18.526Z,29.40
2023-01-27T19:27:56.567Z,33.77
2023-01-27T19:30:26.224Z,29.33
2023-01-27T19:32:58.557Z,33.23
2023-01-27T19:35:29.658Z,31.30
2023-01-27T19:38:03.931Z,18.40
2023-01-27T19:40:32.118Z,33.27
2023-01-27T19:42:59.563Z,19.90
2023-01-27T19:45:29.496Z,15.07
2023-01-27T19:47:59.753Z,25.40
2023-01-27T19:50:33.748Z,27.87
2023-01-27T19:53:04.997Z,26.43
2023-01-27T19:55:32.822Z,24.33
2023-01-27T19:58:07.933Z,33.47
2023-01-27T20:00:37.204Z,32.97
2023-01-27T20:03:11.332Z,34.97
2023-01-27T20:05:41.590Z,26.30
2023-01-27T20:08:14.965Z,20.37
2023-01-27T20:10:42.893Z,35.10
2023-01-27T20:13:16.565Z,28.23
2023-01-27T20:15:47.310Z,26.40
2023-01-27T20:18:18.129Z,38.80
2023-01-27T20:20:54.731Z,18.83
2023-01-27T20:23:27.793Z,31.90
2023-01-27T20:26:03.971Z,30.60
2023-01-27T20:28:31.364Z,41.43
2023-01-27T20:31:03.444Z,46.77
2023-01-27T20:33:30.880Z,40.07
2023-01-27T20:35:58.455Z,31.13
2023-01-27T20:38:29.205Z,33.33
2023-01-27T20:40:59.760Z,34.30
2023-01-27T20:43:35.258Z,22.73
2023-01-27T20:46:04.693Z,34.57
2023-01-27T20:48:32.328Z,26.27
2023-01-27T20:51:03.973Z,19.27
2023-01-27T20:53:33.943Z,30.60
2023-01-27T20:56:03.931Z,20.57
2023-01-27T20:58:32.554Z,31.20
2023-01-27T21:01:08.269Z,15.50
2023-01-27T21:03:37.297Z,26.13
2023-01-27T21:06:05.539Z,33.90
2023-01-27T21:08:33.998Z,20.93
2023-01-27T21:11:02.155Z,18.17
2023-01-27T21:13:29.656Z,28.33
2023-01-27T21:15:57.619Z,32.27
2023-01-27T21:18:26.981Z,26.63
2023-01-27T21:20:58.784Z,28.93
2023-01-27T21:23:36.914Z,34.27
2023-01-27T21:26:08.681Z,33.90
2023-01-27T21:28:38.962Z,35.33
2023-01-27T21:31:07.301Z,30.73
2023-01-27T21:33:35.840Z,29.23
2023-01-27T21:36:03.998Z,29.57
2023-01-27T21:38:38.490Z,33.90
2023-01-27T21:41:07.713Z,31.60
2023-01-27T21:43:53.529Z,29.80
2023-01-27T21:46:21.283Z,26.77
2023-01-27T21:48:48.570Z,26.97
2023-01-27T21:51:15.928Z,29.60
2023-01-27T21:54:04.382Z,32.73
2023-01-27T21:56:53.549Z,28.50
2023-01-27T21:59:24.035Z,20.23
2023-01-27T22:01:56.915Z,25.30
2023-01-27T22:04:36.146Z,29.17
2023-01-27T22:07:06.714Z,27.90
2023-01-27T22:09:40.075Z,26.30
2023-01-27T22:12:21.211Z,25.80
2023-01-27T22:14:51.505Z,29.43
2023-01-27T22:17:28.631Z,29.40
2023-01-27T22:19:56.038Z,30.97
2023-01-27T22:22:26.441Z,27.90
2023-01-27T22:24:59.716Z,27.70
2023-01-27T22:27:30.375Z,25.63
2023-01-27T22:30:01.233Z,25.27
2023-01-27T22:32:28.570Z,33.00
2023-01-27T22:34:58.664Z,22.87
2023-01-27T22:37:26.013Z,21.17
2023-01-27T22:39:53.182Z,8.30
2023-01-27T22:42:20.441Z,17.73
2023-01-27T22:45:00.170Z,13.80
2023-01-27T22:47:30.347Z,19.43
2023-01-27T22:50:12.414Z,14.33
2023-01-27T22:52:51.522Z,9.70
2023-01-27T22:55:21.724Z,13.97
2023-01-27T22:57:49.045Z,15.10
2023-01-27T23:00:17.865Z,13.33
2023-01-27T23:02:45.379Z,13.03
2023-01-27T23:05:17.234Z,11.97
2023-01-27T23:08:19.718Z,12.20
2023-01-27T23:10:50.360Z,10.87
2023-01-27T23:13:32.791Z,11.27
2023-01-27T23:16:03.527Z,6.97
2023-01-27T23:18:34.043Z,10.80
2023-01-27T23:21:07.206Z,8.90
2023-01-27T23:23:49.385Z,10.77
2023-01-27T23:26:17.000Z,18.13
2023-01-27T23:28:44.350Z,13.10
2023-01-27T23:31:21.878Z,7.23
2023-01-27T23:33:49.330Z,5.03
2023-01-27T23:36:16.659Z,8.60
2023-01-27T23:38:43.936Z,15.43
2023-01-27T23:41:17.180Z,12.60
2023-01-27T23:43:44.678Z,17.23
2023-01-27T23:46:12.616Z,13.17
2023-01-27T23:48:40.580Z,11.10
2023-01-27T23:51:08.943Z,10.47
2023-01-27T23:53:36.262Z,10.17
2023-01-27T23:56:04.103Z,7.13
2023-01-27T23:58:31.425Z,14.87
